Terminal Aerodrome Forecast
Issued by NWS

Home | Current Version | Previous Version | Text Only | Print | Product List | Glossary On
Versions: 1 2 3 4 5 6 7 8 9 10 11 12 13 14 15 16 17 18 19 20 21 22 23 24 25 26 27
000
FTUS44 KOUN 292323
TAFLAW
TAF
KLAW 292323Z 3000/3024 14007KT P6SM BKN090
     FM300800 14006KT P6SM VCSH OVC050
      TEMPO 3010/3014 4SM -RA BR OVC025
     FM301600 14012KT 5SM -RA OVC030
      TEMPO 3016/3020 3SM -TSRA BKN020CB=

USA.gov is the U.S. government's official web portal to all federal, state and local government web resources and services.